createdAt,value
2017-10-07T00:01:36.367Z,101262.01
2017-10-07T00:04:03.835Z,101258.05
2017-10-07T00:06:31.287Z,101263.42
2017-10-07T00:08:58.755Z,101267.79
2017-10-07T00:11:26.188Z,101271.37
2017-10-07T00:13:53.659Z,101270.38
2017-10-07T00:16:21.112Z,101277.52
2017-10-07T00:18:48.565Z,101272.72
2017-10-07T00:21:16.031Z,101275.55
2017-10-07T00:23:43.513Z,101279.50
2017-10-07T00:26:10.950Z,101272.52
2017-10-07T00:28:38.418Z,101280.33
2017-10-07T00:31:05.871Z,101273.83
2017-10-07T00:33:33.326Z,101273.77
2017-10-07T00:36:00.857Z,101264.98
2017-10-07T00:38:28.348Z,101270.69
2017-10-07T00:40:55.790Z,101263.58
2017-10-07T00:43:23.336Z,101266.06
2017-10-07T00:45:50.782Z,101259.38
2017-10-07T00:48:18.233Z,101263.38
2017-10-07T00:50:45.678Z,101258.95
2017-10-07T00:53:13.170Z,101259.74
2017-10-07T00:55:40.637Z,101258.95
2017-10-07T00:58:08.172Z,101266.48
2017-10-07T01:00:35.653Z,101269.33
2017-10-07T01:03:03.137Z,101264.73
2017-10-07T01:05:30.621Z,101263.92
2017-10-07T01:07:58.088Z,101259.98
2017-10-07T01:10:25.703Z,101259.57
2017-10-07T01:12:53.232Z,101251.98
2017-10-07T01:15:20.796Z,101248.08
2017-10-07T01:17:48.273Z,101236.44
2017-10-07T01:20:15.757Z,101237.82
2017-10-07T01:22:43.223Z,101230.72
2017-10-07T01:25:10.725Z,101236.33
2017-10-07T01:27:38.198Z,101231.17
2017-10-07T01:30:05.681Z,101228.32
2017-10-07T01:32:33.156Z,101234.05
2017-10-07T01:35:00.637Z,101232.02
2017-10-07T01:37:28.097Z,101231.14
2017-10-07T01:39:55.581Z,101224.11
2017-10-07T01:42:23.125Z,101214.77
2017-10-07T01:44:50.624Z,101222.77
2017-10-07T01:47:18.083Z,101217.06
2017-10-07T01:49:45.577Z,101216.28
2017-10-07T01:52:13.041Z,101221.84
2017-10-07T01:54:40.521Z,101218.17
2017-10-07T01:57:07.981Z,101218.11
2017-10-07T01:59:37.155Z,101217.48
2017-10-07T02:02:04.621Z,101216.92
2017-10-07T02:04:32.105Z,101215.41
2017-10-07T02:06:59.566Z,101214.80
2017-10-07T02:09:27.099Z,101210.47
2017-10-07T02:11:54.661Z,101211.92
2017-10-07T02:14:22.141Z,101216.10
2017-10-07T02:16:49.609Z,101214.09
2017-10-07T02:19:17.077Z,101218.95
2017-10-07T02:21:44.585Z,101217.31
2017-10-07T02:24:12.117Z,101214.69
2017-10-07T02:26:39.596Z,101201.86
2017-10-07T02:29:07.057Z,101197.97
2017-10-07T02:31:34.634Z,101198.58
2017-10-07T02:34:02.098Z,101194.86
2017-10-07T02:36:29.629Z,101195.55
2017-10-07T02:38:57.093Z,101192.67
2017-10-07T02:41:24.573Z,101194.78
2017-10-07T02:43:52.032Z,101197.95
2017-10-07T02:46:19.553Z,101191.29
2017-10-07T02:48:47.029Z,101197.41
2017-10-07T02:51:14.541Z,101195.00
2017-10-07T02:53:42.033Z,101195.17
2017-10-07T02:56:09.509Z,101195.00
2017-10-07T02:58:36.964Z,101198.56
2017-10-07T03:01:04.449Z,101199.88
2017-10-07T03:03:31.956Z,101201.12
2017-10-07T03:05:59.440Z,101202.70
2017-10-07T03:08:26.897Z,101200.80
2017-10-07T03:10:54.376Z,101201.78
2017-10-07T03:13:21.858Z,101204.39
2017-10-07T03:15:49.342Z,101204.88
2017-10-07T03:18:16.803Z,101200.89
2017-10-07T03:20:44.357Z,101202.59
2017-10-07T03:23:11.820Z,101199.02
2017-10-07T03:25:39.376Z,101202.94
2017-10-07T03:28:06.929Z,101205.10
2017-10-07T03:30:34.441Z,101202.69
2017-10-07T03:33:01.912Z,101190.20
2017-10-07T03:35:29.403Z,101198.67
2017-10-07T03:37:56.898Z,101195.06
2017-10-07T03:40:24.415Z,101194.72
2017-10-07T03:42:51.904Z,101201.69
2017-10-07T03:45:19.373Z,101210.56
2017-10-07T03:47:46.892Z,101207.88
2017-10-07T03:50:14.445Z,101197.80
2017-10-07T03:52:42.002Z,101196.49
2017-10-07T03:55:09.464Z,101193.07
2017-10-07T03:57:37.021Z,101187.98
2017-10-07T04:00:04.591Z,101183.94
2017-10-07T04:02:32.074Z,101182.66
2017-10-07T04:04:59.534Z,101175.67
2017-10-07T04:07:27.041Z,101173.34
2017-10-07T04:09:54.506Z,101172.79
2017-10-07T04:12:22.074Z,101169.22
2017-10-07T04:14:49.549Z,101179.72
2017-10-07T04:17:17.031Z,101173.34
2017-10-07T04:19:44.501Z,101178.45
2017-10-07T04:22:11.992Z,101184.35
2017-10-07T04:24:39.484Z,101184.46
2017-10-07T04:27:06.989Z,101185.39
2017-10-07T04:29:34.473Z,101192.39
2017-10-07T04:32:01.941Z,101180.69
2017-10-07T04:34:29.489Z,101187.48
2017-10-07T04:36:56.945Z,101188.30
2017-10-07T04:39:24.457Z,101184.97
2017-10-07T04:41:51.946Z,101192.09
2017-10-07T04:44:19.420Z,101193.03
2017-10-07T04:46:46.881Z,101192.84
2017-10-07T04:49:14.365Z,101192.94
2017-10-07T04:51:41.825Z,101185.91
2017-10-07T04:54:09.310Z,101185.23
2017-10-07T04:56:36.771Z,101181.50
2017-10-07T04:59:04.245Z,101184.27
2017-10-07T05:01:31.704Z,101186.95
2017-10-07T05:03:59.192Z,101186.62
2017-10-07T05:06:26.717Z,101185.23
2017-10-07T05:08:54.192Z,101184.79
2017-10-07T05:11:21.656Z,101180.00
2017-10-07T05:13:49.141Z,101183.06
2017-10-07T05:16:16.601Z,101186.56
2017-10-07T05:18:44.090Z,101181.23
2017-10-07T05:21:11.558Z,101183.44
2017-10-07T05:23:39.125Z,101180.75
2017-10-07T05:26:06.681Z,101179.80
2017-10-07T05:28:34.157Z,101177.16
2017-10-07T05:31:01.641Z,101177.66
2017-10-07T05:33:29.157Z,101175.41
2017-10-07T05:35:56.613Z,101178.09
2017-10-07T05:38:24.093Z,101186.03
2017-10-07T05:40:51.549Z,101184.21
2017-10-07T05:43:19.082Z,101188.93
2017-10-07T05:45:46.549Z,101189.68
2017-10-07T05:48:14.102Z,101196.61
2017-10-07T05:50:41.581Z,101198.47
2017-10-07T05:53:09.113Z,101195.72
2017-10-07T05:55:36.614Z,101194.67
2017-10-07T05:58:04.081Z,101196.64
2017-10-07T06:00:31.564Z,101206.55
2017-10-07T06:02:59.030Z,101204.28
2017-10-07T06:05:26.510Z,101208.56
2017-10-07T06:07:54.061Z,101209.89
2017-10-07T06:10:21.551Z,101212.08
2017-10-07T06:12:49.423Z,101215.47
2017-10-07T06:15:16.948Z,101213.30
2017-10-07T06:17:44.501Z,101210.67
2017-10-07T06:20:11.985Z,101208.95
2017-10-07T06:22:39.437Z,101212.47
2017-10-07T06:25:06.912Z,101217.41
2017-10-07T06:27:34.375Z,101219.16
2017-10-07T06:30:01.885Z,101222.23
2017-10-07T06:32:29.743Z,101219.79
2017-10-07T06:34:57.309Z,101220.66
2017-10-07T06:37:24.773Z,101225.93
2017-10-07T06:39:52.271Z,101221.77
2017-10-07T06:42:19.730Z,101216.53
2017-10-07T06:44:47.233Z,101221.42
2017-10-07T06:47:14.692Z,101214.34
2017-10-07T06:49:42.253Z,101209.09
2017-10-07T06:52:09.718Z,101210.48
2017-10-07T06:54:37.176Z,101210.20
2017-10-07T06:57:04.734Z,101201.85
2017-10-07T06:59:32.184Z,101196.17
2017-10-07T07:01:59.665Z,101202.18
2017-10-07T07:04:27.129Z,101197.70
2017-10-07T07:06:54.657Z,101189.80
2017-10-07T07:09:22.204Z,101195.00
2017-10-07T07:11:49.773Z,101197.23
2017-10-07T07:14:17.260Z,101191.48
2017-10-07T07:16:44.805Z,101193.37
2017-10-07T07:19:12.278Z,101193.08
2017-10-07T07:21:39.767Z,101199.75
2017-10-07T07:24:07.277Z,101188.07
2017-10-07T07:26:34.761Z,101186.84
2017-10-07T07:29:02.217Z,101181.98
2017-10-07T07:31:29.718Z,101180.52
2017-10-07T07:33:57.176Z,101182.25
2017-10-07T07:36:24.677Z,101185.72
2017-10-07T07:38:52.153Z,101184.11
2017-10-07T07:41:19.652Z,101178.03
2017-10-07T07:43:47.220Z,101183.27
2017-10-07T07:46:14.705Z,101181.48
2017-10-07T07:48:42.187Z,101179.31
2017-10-07T07:51:09.682Z,101178.38
2017-10-07T07:53:37.155Z,101178.55
2017-10-07T07:56:04.673Z,101172.16
2017-10-07T07:58:32.136Z,101174.77
2017-10-07T08:00:59.617Z,101172.93
2017-10-07T08:03:27.080Z,101175.58
2017-10-07T08:05:54.630Z,101177.66
2017-10-07T08:08:22.186Z,101179.38
2017-10-07T08:10:49.998Z,101182.58
2017-10-07T08:13:17.513Z,101174.28
2017-10-07T08:15:44.997Z,101171.97
2017-10-07T08:18:12.462Z,101173.80
2017-10-07T08:20:39.994Z,101173.29
2017-10-07T08:23:07.493Z,101168.61
2017-10-07T08:25:34.953Z,101175.69
2017-10-07T08:28:02.458Z,101167.36
2017-10-07T08:30:29.933Z,101162.80
2017-10-07T08:32:57.416Z,101162.45
2017-10-07T08:35:24.881Z,101161.08
2017-10-07T08:37:52.378Z,101160.67
2017-10-07T08:40:19.837Z,101155.80
2017-10-07T08:42:47.329Z,101162.03
2017-10-07T08:45:14.806Z,101154.75
2017-10-07T08:47:42.334Z,101153.24
2017-10-07T08:50:09.797Z,101154.98
2017-10-07T08:52:37.313Z,101153.69
2017-10-07T08:55:04.780Z,101149.64
2017-10-07T08:57:32.265Z,101146.28
2017-10-07T08:59:59.729Z,101143.36
2017-10-07T09:02:27.216Z,101141.89
2017-10-07T09:04:55.182Z,101136.83
2017-10-07T09:07:22.660Z,101140.59
2017-10-07T09:09:50.132Z,101137.38
2017-10-07T09:12:17.612Z,101137.11
2017-10-07T09:14:45.113Z,101136.81
2017-10-07T09:17:12.600Z,101136.81
2017-10-07T09:19:40.058Z,101130.00
2017-10-07T09:22:07.559Z,101133.77
2017-10-07T09:24:35.026Z,101132.22
2017-10-07T09:27:02.493Z,101134.64
2017-10-07T09:29:29.993Z,101139.63
2017-10-07T09:31:57.457Z,101128.16
2017-10-07T09:34:25.029Z,101122.13
2017-10-07T09:36:52.500Z,101110.14
2017-10-07T09:39:20.032Z,101110.23
2017-10-07T09:41:47.489Z,101117.27
2017-10-07T09:44:14.985Z,101109.61
2017-10-07T09:46:42.441Z,101096.56
2017-10-07T09:49:09.926Z,101095.56
2017-10-07T09:51:37.404Z,101102.06
2017-10-07T09:54:04.899Z,101092.11
2017-10-07T09:56:32.369Z,101084.95
2017-10-07T09:58:59.877Z,101073.75
2017-10-07T10:01:27.346Z,101075.42
2017-10-07T10:03:54.841Z,101077.87
2017-10-07T10:06:22.306Z,101052.81
2017-10-07T10:08:49.799Z,101056.64
2017-10-07T10:11:17.303Z,101057.88
2017-10-07T10:13:44.762Z,101044.33
2017-10-07T10:16:12.253Z,101039.48
2017-10-07T10:18:39.713Z,101027.53
2017-10-07T10:21:07.219Z,101030.80
2017-10-07T10:23:34.674Z,101029.42
2017-10-07T10:26:02.161Z,101031.03
2017-10-07T10:28:29.616Z,101028.93
2017-10-07T10:30:57.135Z,101027.62
2017-10-07T10:33:24.609Z,101027.20
2017-10-07T10:35:52.092Z,101023.64
2017-10-07T10:38:19.592Z,101029.17
2017-10-07T10:40:47.072Z,101019.53
2017-10-07T10:43:14.546Z,101013.41
2017-10-07T10:45:42.035Z,101008.58
2017-10-07T10:48:09.520Z,100998.17
2017-10-07T10:50:37.005Z,100986.25
2017-10-07T10:53:04.545Z,100976.63
2017-10-07T10:55:32.057Z,100968.28
2017-10-07T10:57:59.517Z,100965.16
2017-10-07T11:00:27.000Z,100953.97
2017-10-07T11:02:54.475Z,100952.81
2017-10-07T11:05:21.957Z,100951.87
2017-10-07T11:07:49.428Z,100949.44
2017-10-07T11:10:16.929Z,100959.70
2017-10-07T11:12:44.393Z,100960.07
2017-10-07T11:15:11.969Z,100957.62
2017-10-07T11:17:39.509Z,100954.73
2017-10-07T11:20:07.091Z,100947.32
2017-10-07T11:22:34.580Z,100943.41
2017-10-07T11:25:02.049Z,100935.97
2017-10-07T11:27:29.545Z,100925.01
2017-10-07T11:29:57.105Z,100920.98
2017-10-07T11:32:24.705Z,100915.19
2017-10-07T11:34:52.223Z,100914.75
2017-10-07T11:37:19.709Z,100916.60
2017-10-07T11:39:47.241Z,100904.64
2017-10-07T11:42:14.797Z,100904.06
2017-10-07T11:44:42.357Z,100902.38
2017-10-07T11:47:09.847Z,100896.94
2017-10-07T11:49:37.369Z,100894.45
2017-10-07T11:52:04.852Z,100882.00
2017-10-07T11:54:32.329Z,100881.63
2017-10-07T11:56:59.810Z,100880.94
2017-10-07T11:59:27.301Z,100869.81
2017-10-07T12:01:54.781Z,100867.64
2017-10-07T12:04:22.266Z,100864.44
2017-10-07T12:06:49.772Z,100866.63
2017-10-07T12:09:17.242Z,100858.50
2017-10-07T12:11:44.782Z,100850.18
2017-10-07T12:14:12.253Z,100850.58
2017-10-07T12:16:39.800Z,100843.50
2017-10-07T12:19:07.382Z,100840.87
2017-10-07T12:21:34.860Z,100832.80
2017-10-07T12:24:02.368Z,100829.84
2017-10-07T12:26:29.833Z,100822.96
2017-10-07T12:28:57.323Z,100827.23
2017-10-07T12:31:24.784Z,100821.43
2017-10-07T12:33:52.290Z,100819.67
2017-10-07T12:36:19.755Z,100817.47
2017-10-07T12:38:47.253Z,100818.09
2017-10-07T12:41:14.717Z,100818.53
2017-10-07T12:43:42.233Z,100799.45
2017-10-07T12:46:09.752Z,100799.64
2017-10-07T12:48:37.236Z,100793.32
2017-10-07T12:51:04.717Z,100788.24
2017-10-07T12:53:32.210Z,100782.37
2017-10-07T12:55:59.717Z,100780.31
2017-10-07T12:58:27.201Z,100775.08
2017-10-07T13:00:54.733Z,100776.30
2017-10-07T13:03:22.293Z,100762.52
2017-10-07T13:05:49.751Z,100759.44
2017-10-07T13:08:17.258Z,100762.59
2017-10-07T13:10:44.721Z,100760.34
2017-10-07T13:13:12.200Z,100762.77
2017-10-07T13:15:39.696Z,100760.67
2017-10-07T13:18:07.239Z,100760.61
2017-10-07T13:20:34.701Z,100769.62
2017-10-07T13:23:02.182Z,100770.87
2017-10-07T13:25:29.721Z,100780.83
2017-10-07T13:27:57.226Z,100779.47
2017-10-07T13:30:24.693Z,100780.34
2017-10-07T13:32:52.277Z,100780.23
2017-10-07T13:35:19.732Z,100772.02
2017-10-07T13:37:47.294Z,100768.34
2017-10-07T13:40:14.853Z,100771.16
2017-10-07T13:42:42.434Z,100758.22
2017-10-07T13:45:09.970Z,100752.97
2017-10-07T13:47:37.533Z,100746.04
2017-10-07T13:50:05.018Z,100737.63
2017-10-07T13:52:32.544Z,100740.41
2017-10-07T13:55:00.025Z,100721.17
2017-10-07T13:57:27.485Z,100719.72
2017-10-07T13:59:54.981Z,100718.77
2017-10-07T14:02:22.441Z,100719.28
2017-10-07T14:04:50.078Z,100713.00
2017-10-07T14:07:17.546Z,100701.39
2017-10-07T14:09:45.054Z,100706.12
2017-10-07T14:12:12.529Z,100704.41
2017-10-07T14:14:40.013Z,100703.89
2017-10-07T14:17:07.521Z,100707.92
2017-10-07T14:19:35.024Z,100699.13
2017-10-07T14:22:02.485Z,100692.28
2017-10-07T14:24:29.989Z,100682.85
2017-10-07T14:26:57.450Z,100675.95
2017-10-07T14:29:25.030Z,100670.25
2017-10-07T14:31:52.488Z,100668.69
2017-10-07T14:34:20.017Z,100662.06
2017-10-07T14:36:47.517Z,100657.47
2017-10-07T14:39:14.998Z,100659.51
2017-10-07T14:41:42.498Z,100653.78
2017-10-07T14:44:09.977Z,100646.61
2017-10-07T14:46:37.438Z,100647.34
2017-10-07T14:49:04.969Z,100651.06
2017-10-07T14:51:32.450Z,100644.78
2017-10-07T14:53:59.936Z,100645.94
2017-10-07T14:56:27.397Z,100627.09
2017-10-07T14:58:54.852Z,100623.30
2017-10-07T15:01:22.338Z,100619.81
2017-10-07T15:03:49.800Z,100611.39
2017-10-07T15:06:17.396Z,100604.88
2017-10-07T15:08:44.868Z,100607.33
2017-10-07T15:11:12.357Z,100599.77
2017-10-07T15:13:39.828Z,100588.02
2017-10-07T15:16:07.321Z,100589.70
2017-10-07T15:18:34.781Z,100586.00
2017-10-07T15:21:02.354Z,100581.63
2017-10-07T15:23:29.865Z,100583.83
2017-10-07T15:25:57.355Z,100576.91
2017-10-07T15:28:24.815Z,100567.90
2017-10-07T15:30:52.385Z,100556.67
2017-10-07T15:33:19.897Z,100551.55
2017-10-07T15:35:47.377Z,100540.40
2017-10-07T15:38:14.841Z,100543.81
2017-10-07T15:40:42.327Z,100539.22
2017-10-07T15:43:09.789Z,100537.92
2017-10-07T15:45:37.281Z,100542.91
2017-10-07T15:48:04.737Z,100538.91
2017-10-07T15:50:32.216Z,100536.92
2017-10-07T15:53:00.463Z,100537.27
2017-10-07T15:55:28.033Z,100534.19
2017-10-07T15:57:55.509Z,100533.50
2017-10-07T16:00:22.998Z,100534.50
2017-10-07T16:02:50.507Z,100533.97
2017-10-07T16:05:17.992Z,100534.28
2017-10-07T16:07:45.472Z,100529.81
2017-10-07T16:10:12.929Z,100522.34
2017-10-07T16:12:40.409Z,100515.45
2017-10-07T16:15:07.909Z,100512.31
2017-10-07T16:17:35.397Z,100515.17
2017-10-07T16:20:02.901Z,100510.50
2017-10-07T16:22:30.388Z,100508.98
2017-10-07T16:24:57.916Z,100513.20
2017-10-07T16:27:25.494Z,100506.39
2017-10-07T16:29:53.032Z,100505.00
2017-10-07T16:32:20.529Z,100503.26
2017-10-07T16:34:48.053Z,100502.27
2017-10-07T16:37:15.611Z,100507.52
2017-10-07T16:39:43.072Z,100498.39
2017-10-07T16:42:10.552Z,100499.34
2017-10-07T16:44:38.018Z,100491.33
2017-10-07T16:47:05.497Z,100486.84
2017-10-07T16:49:32.998Z,100482.14
2017-10-07T16:52:00.480Z,100471.52
2017-10-07T16:54:27.963Z,100472.52
2017-10-07T16:56:55.450Z,100466.64
2017-10-07T16:59:22.938Z,100464.94
2017-10-07T17:01:50.432Z,100472.36
2017-10-07T17:04:17.889Z,100471.92
2017-10-07T17:06:45.386Z,100469.45
2017-10-07T17:09:12.853Z,100463.00
2017-10-07T17:11:40.357Z,100462.47
2017-10-07T17:14:07.845Z,100454.84
2017-10-07T17:16:35.343Z,100444.20
2017-10-07T17:19:02.898Z,100451.67
2017-10-07T17:21:30.418Z,100446.89
2017-10-07T17:23:57.877Z,100438.71
2017-10-07T17:26:25.364Z,100429.55
2017-10-07T17:28:52.839Z,100437.66
2017-10-07T17:31:20.325Z,100428.95
2017-10-07T17:33:47.840Z,100419.43
2017-10-07T17:36:15.321Z,100423.72
2017-10-07T17:38:42.777Z,100414.38
2017-10-07T17:41:10.269Z,100418.72
2017-10-07T17:43:37.765Z,100405.03
2017-10-07T17:46:05.309Z,100415.91
2017-10-07T17:48:32.769Z,100409.94
2017-10-07T17:51:00.229Z,100406.19
2017-10-07T17:53:27.781Z,100410.53
2017-10-07T17:55:55.474Z,100412.78
2017-10-07T17:58:22.959Z,100418.38
2017-10-07T18:00:50.477Z,100415.05
2017-10-07T18:03:18.017Z,100423.55
2017-10-07T18:05:45.485Z,100435.23
2017-10-07T18:08:12.965Z,100439.28
2017-10-07T18:10:40.517Z,100429.09
2017-10-07T18:13:07.996Z,100427.10
2017-10-07T18:15:35.460Z,100421.03
2017-10-07T18:18:02.961Z,100419.29
2017-10-07T18:20:30.443Z,100414.69
2017-10-07T18:22:57.984Z,100402.20
2017-10-07T18:25:25.442Z,100402.39
2017-10-07T18:27:53.005Z,100399.20
2017-10-07T18:30:20.467Z,100394.76
2017-10-07T18:32:47.953Z,100398.98
2017-10-07T18:35:15.488Z,100396.39
2017-10-07T18:37:42.980Z,100391.03
2017-10-07T18:40:10.437Z,100390.05
2017-10-07T18:42:37.894Z,100395.08
2017-10-07T18:45:05.379Z,100395.42
2017-10-07T18:47:32.845Z,100398.28
2017-10-07T18:50:00.341Z,100410.52
2017-10-07T18:52:27.865Z,100411.45
2017-10-07T18:54:55.941Z,100413.70
2017-10-07T18:57:23.492Z,100401.30
2017-10-07T18:59:50.997Z,100404.49
2017-10-07T19:02:18.525Z,100401.77
2017-10-07T19:04:46.010Z,100392.87
2017-10-07T19:07:13.473Z,100397.43
2017-10-07T19:09:40.953Z,100398.78
2017-10-07T19:12:08.445Z,100397.67
2017-10-07T19:14:35.925Z,100396.09
2017-10-07T19:17:03.392Z,100397.06
2017-10-07T19:19:30.913Z,100404.83
2017-10-07T19:21:58.472Z,100407.14
2017-10-07T19:24:26.033Z,100413.13
2017-10-07T19:26:53.508Z,100409.27
2017-10-07T19:29:20.988Z,100399.81
2017-10-07T19:31:48.558Z,100400.38
2017-10-07T19:34:16.068Z,100386.47
2017-10-07T19:36:43.621Z,100394.80
2017-10-07T19:39:11.195Z,100391.00
2017-10-07T19:41:38.653Z,100390.73
2017-10-07T19:44:06.145Z,100379.25
2017-10-07T19:46:33.672Z,100372.70
2017-10-07T19:49:01.165Z,100374.44
2017-10-07T19:51:28.629Z,100358.52
2017-10-07T19:53:56.101Z,100350.89
2017-10-07T19:56:23.580Z,100347.88
2017-10-07T19:58:51.132Z,100351.38
2017-10-07T20:01:18.617Z,100364.62
2017-10-07T20:03:46.149Z,100369.66
2017-10-07T20:06:13.641Z,100360.85
2017-10-07T20:08:41.169Z,100354.73
2017-10-07T20:11:08.725Z,100355.00
2017-10-07T20:13:36.181Z,100349.23
2017-10-07T20:16:03.673Z,100342.86
2017-10-07T20:18:31.142Z,100340.03
2017-10-07T20:20:58.673Z,100341.20
2017-10-07T20:23:26.133Z,100326.73
2017-10-07T20:25:53.640Z,100335.11
2017-10-07T20:28:21.149Z,100335.61
2017-10-07T20:30:48.632Z,100322.68
2017-10-07T20:33:16.102Z,100315.70
2017-10-07T20:35:44.424Z,100315.85
2017-10-07T20:38:11.981Z,100309.94
2017-10-07T20:40:39.465Z,100304.75
2017-10-07T20:43:06.920Z,100314.43
2017-10-07T20:45:34.445Z,100306.98
2017-10-07T20:48:01.933Z,100308.91
2017-10-07T20:50:29.388Z,100309.08
2017-10-07T20:52:56.940Z,100306.98
2017-10-07T20:55:24.481Z,100310.73
2017-10-07T20:57:51.968Z,100316.91
2017-10-07T21:00:19.434Z,100309.41
2017-10-07T21:02:47.341Z,100310.21
2017-10-07T21:05:14.818Z,100305.99
2017-10-07T21:07:42.383Z,100304.16
2017-10-07T21:10:12.653Z,100304.19
2017-10-07T21:12:40.176Z,100294.14
2017-10-07T21:15:07.645Z,100295.75
2017-10-07T21:20:12.823Z,100292.52
2017-10-07T21:22:40.429Z,100292.78
2017-10-07T21:25:07.885Z,100290.30
2017-10-07T21:27:35.365Z,100284.59
2017-10-07T21:30:02.910Z,100280.85
2017-10-07T21:32:30.397Z,100282.56
2017-10-07T21:34:57.873Z,100279.61
2017-10-07T21:37:25.415Z,100274.28
2017-10-07T21:39:52.874Z,100278.86
2017-10-07T21:42:20.365Z,100280.80
2017-10-07T21:44:47.821Z,100276.80
2017-10-07T21:47:15.320Z,100273.67
2017-10-07T21:49:42.861Z,100277.79
2017-10-07T21:52:10.422Z,100267.89
2017-10-07T21:54:37.906Z,100269.76
2017-10-07T21:57:05.371Z,100260.17
2017-10-07T21:59:32.861Z,100265.26
2017-10-07T22:02:00.317Z,100254.16
2017-10-07T22:04:27.796Z,100247.42
2017-10-07T22:06:55.301Z,100243.72
2017-10-07T22:09:22.789Z,100241.22
2017-10-07T22:11:50.248Z,100233.94
2017-10-07T22:14:17.733Z,100230.47
2017-10-07T22:16:45.211Z,100229.27
2017-10-07T22:19:12.698Z,100230.80
2017-10-07T22:21:40.160Z,100232.78
2017-10-07T22:24:07.760Z,100223.50
2017-10-07T22:26:35.277Z,100222.58
2017-10-07T22:29:02.777Z,100218.61
2017-10-07T22:31:30.261Z,100203.43
2017-10-07T22:33:57.720Z,100210.25
2017-10-07T22:36:25.201Z,100207.20
2017-10-07T22:38:52.747Z,100196.77
2017-10-07T22:41:20.233Z,100195.25
2017-10-07T22:43:47.723Z,100204.30
2017-10-07T22:46:15.282Z,100193.59
2017-10-07T22:48:42.767Z,100202.53
2017-10-07T22:51:10.262Z,100201.16
2017-10-07T22:53:37.745Z,100189.56
2017-10-07T22:56:05.233Z,100190.60
2017-10-07T22:58:32.809Z,100187.31
2017-10-07T23:01:00.305Z,100184.38
2017-10-07T23:03:27.805Z,100190.24
2017-10-07T23:05:55.290Z,100190.18
2017-10-07T23:08:22.792Z,100194.45
2017-10-07T23:10:50.248Z,100200.86
2017-10-07T23:13:17.729Z,100193.92
2017-10-07T23:15:45.196Z,100192.84
2017-10-07T23:18:12.693Z,100189.31
2017-10-07T23:20:40.153Z,100193.82
2017-10-07T23:23:07.648Z,100201.92
2017-10-07T23:25:35.104Z,100204.64
2017-10-07T23:28:02.586Z,100198.88
2017-10-07T23:30:30.048Z,100190.96
2017-10-07T23:32:57.530Z,100193.14
2017-10-07T23:35:25.026Z,100187.38
2017-10-07T23:37:52.598Z,100190.38
2017-10-07T23:40:20.060Z,100189.52
2017-10-07T23:42:47.593Z,100187.14
2017-10-07T23:45:15.057Z,100187.91
2017-10-07T23:47:42.540Z,100193.52
2017-10-07T23:50:09.997Z,100203.06
2017-10-07T23:52:37.463Z,100193.82
2017-10-07T23:55:04.977Z,100196.63
2017-10-07T23:57:32.538Z,100191.98
